Celebrity Silhouette — 9HA2583 — position and weather

sailwx.info

Track history (hours):
 
Tides and Currents Weather Stations Pressure Air Temp Water Temp Dewpoint Dewpoint Depression Visibility Wind Speed Wind Dir Waves Ship Positions

Celebrity Silhouette

Last reported at 2017-Jul-22 18:22 UTC. Time now 2017-Jul-22 18:34 UTC.
Position N 53°24' W 003°00'.

Length 319 m; draft 8.6 m.

Type: Passenger vessel. MMSI: 248939000.

Date/timePositionNaut miles runAvg speedWind from/ knotsBaromVisibWave heightAir tempDewpointWater temp
2017-Jul-22 18:22N 53°24' W 003°00'0 0.0
2017-Jul-22 17:43N 53°24' W 003°00'0 0.0
2017-Jul-22 17:25N 53°24' W 003°00'3068.7
2017-Jul-22 17:00N 53°54' W 003°00'301521.3 270 / 81008.0 5.4 23.711.819.2
2017-Jul-22 16:58N 53°24' W 003°00'0 0.0
2017-Jul-22 16:25N 53°24' W 003°00'0 0.0
2017-Jul-22 15:55N 53°24' W 003°00'0 0.0
2017-Jul-22 15:25N 53°24' W 003°00'0 0.0
2017-Jul-22 14:52N 53°24' W 003°00'0 0.0
2017-Jul-22 13:37N 53°24' W 003°00'0 0.0
2017-Jul-22 13:25N 53°24' W 003°00'0 0.0
2017-Jul-22 12:52N 53°24' W 003°00'0 0.0
2017-Jul-22 12:28N 53°24' W 003°00'0 0.9
2017-Jul-22 12:00N 53°24' W 003°00'021.9 210 / 51007.010.8 17.5 5.018.8
2017-Jul-22 11:58N 53°24' W 003°00'0 0.0
2017-Jul-22 11:25N 53°24' W 003°00'0 0.0
2017-Jul-22 10:46N 53°24' W 003°00'0 0.0
2017-Jul-22 10:16N 53°24' W 003°00'0 0.0
2017-Jul-22 09:58N 53°24' W 003°00'0 0.0
2017-Jul-22 09:28N 53°24' W 003°00'0 0.0
2017-Jul-22 08:52N 53°24' W 003°00'0 0.0
2017-Jul-22 08:25N 53°24' W 003°00'0 0.0
2017-Jul-22 07:58N 53°24' W 003°00'0 0.0
2017-Jul-22 07:28N 53°24' W 003°00'0 0.0
2017-Jul-22 06:58N 53°24' W 003°00'0 0.0
2017-Jul-22 06:22N 53°24' W 003°00'0 0.0
2017-Jul-22 05:58N 53°24' W 003°00'0 0.0
2017-Jul-22 05:28N 53°24' W 003°00'0 0.0
2017-Jul-22 04:55N 53°24' W 003°00'0 0.0
2017-Jul-22 04:28N 53°24' W 003°00'0 0.0
2017-Jul-22 03:58N 53°24' W 003°00'0 0.0
2017-Jul-22 03:29N 53°24' W 003°00'0 0.0
2017-Jul-22 03:00N 53°24' W 003°00'0 0.2
2017-Jul-22 02:30N 53°24' W 003°00'1 1.1
2017-Jul-22 02:00N 53°25' W 003°01'4 8.1
2017-Jul-22 01:30N 53°28' W 003°04'510.0
2017-Jul-22 01:00N 53°32' W 003°10'510.8
2017-Jul-22 00:30N 53°32' W 003°19'2 3.4
2017-Jul-22 00:00N 53°30' W 003°18'61478.4 150 / 201004.0 5.4 14.010.517.0
2017-Jul-21 23:59N 53°31' W 003°28'713.7
2017-Jul-21 23:30N 53°31' W 003°39'713.8
2017-Jul-21 23:00N 53°31' W 003°51'510.4
2017-Jul-21 22:30N 53°31' W 003°60'8811.2
2017-Jul-21 14:40N 52°22' W 005°30'211.1
2017-Jul-21 14:30N 52°20' W 005°31'510.4
2017-Jul-21 14:00N 52°15' W 005°34'5 9.5
2017-Jul-21 13:30N 52°11' W 005°37'1711.3
2017-Jul-21 12:00N 51°54' W 005°42'12 6.6 200 / 111001.010.8 14.6 5.716.7
2017-Jul-21 10:06N 51°43' W 005°50'1 9.1
2017-Jul-21 10:00N 51°42' W 005°50'6 9.3
2017-Jul-21 09:18N 51°35' W 005°52'3 9.3
2017-Jul-21 09:00N 51°33' W 005°53'5 9.7
2017-Jul-21 08:30N 51°28' W 005°54'2310.4
2017-Jul-21 06:20N 51°05' W 005°54'410.6
2017-Jul-21 06:00N 51°02' W 005°54'510.7
2017-Jul-21 05:30N 50°56' W 005°54'510.8
2017-Jul-21 05:00N 50°51' W 005°54'3288.3
2017-Jul-21 05:00N 50°48' W 005°54'2 5.1 200 / 401000.0 5.4 15.213.917.8
2017-Jul-21 04:30N 50°46' W 005°53'510.5
2017-Jul-21 04:00N 50°40' W 005°54'510.3
2017-Jul-21 03:30N 50°35' W 005°54'510.4
2017-Jul-21 03:00N 50°30' W 005°54'510.6
2017-Jul-21 02:30N 50°25' W 005°54'510.7
2017-Jul-21 02:00N 50°19' W 005°54'510.8
2017-Jul-21 01:30N 50°14' W 005°54'611.5
2017-Jul-21 01:00N 50°08' W 005°54'611.5
2017-Jul-21 00:30N 50°02' W 005°54'816.2
2017-Jul-21 00:00N 49°54' W 005°54'65 9.7 210 / 251007.0 5.4 15.814.517.4
2017-Jul-20 17:16N 49°33' W 004°19'3 8.8
2017-Jul-20 16:58N 49°32' W 004°15'4 8.5
2017-Jul-20 16:28N 49°32' W 004°08'4 8.1
2017-Jul-20 16:00N 49°31' W 004°02'4 7.8
2017-Jul-20 15:30N 49°31' W 003°56'4 7.8
2017-Jul-20 15:00N 49°30' W 003°50'1111.2
2017-Jul-20 14:00N 49°24' W 003°36'418.6 230 / 221014.010.8 15.7 4.517.0
2017-Jul-20 13:48N 49°28' W 003°36'2 8.0
2017-Jul-20 13:30N 49°28' W 003°32'4 8.5
2017-Jul-20 13:00N 49°27' W 003°26'4 8.2
2017-Jul-20 12:30N 49°27' W 003°20'4 8.7
2017-Jul-20 12:00N 49°26' W 003°13'40 4.8
2017-Jul-20 03:40N 49°31' W 002°12'214.3
2017-Jul-20 03:31N 49°33' W 002°11'13 8.6
2017-Jul-20 02:00N 49°45' W 002°04'5 9.7
2017-Jul-20 01:30N 49°50' W 002°02'510.7
2017-Jul-20 01:00N 49°55' W 001°59'510.9
2017-Jul-20 00:30N 49°60' W 001°57'510.9
2017-Jul-20 00:00N 50°05' W 001°54'5345.6
2017-Jul-20 00:00N 50°00' W 001°54'919.1 190 / 131006.0 5.4 17.6 2.116.9
2017-Jul-19 23:30N 50°09' W 001°49'510.9
2017-Jul-19 23:00N 50°11' W 001°41'510.9
2017-Jul-19 22:30N 50°12' W 001°33'510.8
2017-Jul-19 22:00N 50°14' W 001°25'511.0
2017-Jul-19 21:30N 50°15' W 001°17'810.9
2017-Jul-19 20:46N 50°17' W 001°05'410.9
2017-Jul-19 20:25N 50°19' W 000°59'511.1
2017-Jul-19 20:00N 50°20' W 000°52'610.8
2017-Jul-19 19:28N 50°22' W 000°43'910.2
2017-Jul-19 18:33N 50°24' W 000°30'1 9.9
2017-Jul-19 18:30N 50°24' W 000°29'5 9.5
2017-Jul-19 18:00N 50°26' W 000°22'5 9.2
2017-Jul-19 17:30N 50°27' W 000°15'5 9.1
2017-Jul-19 17:00N 50°28' W 000°08'4 8.9
2017-Jul-19 16:30N 50°30' W 000°01'4 8.9
2017-Jul-19 16:01N 50°31' E 000°05'5 9.2
2017-Jul-19 15:30N 50°33' E 000°12'5 9.6
2017-Jul-19 15:00N 50°34' E 000°19'510.0
2017-Jul-19 14:30N 50°36' E 000°27'510.3
2017-Jul-19 14:01N 50°38' E 000°34'510.4
2017-Jul-19 13:30N 50°41' E 000°41'510.4
2017-Jul-19 13:01N 50°44' E 000°47'510.5
2017-Jul-19 12:30N 50°47' E 000°54'510.6
2017-Jul-19 12:01N 50°50' E 001°01'2133.1
2017-Jul-19 12:00N 50°48' E 001°00'714.7 240 / 211007.0 5.4 18.914.218.0
2017-Jul-19 11:30N 50°54' E 001°07'510.3
2017-Jul-19 11:00N 50°57' E 001°14'510.0
2017-Jul-19 10:30N 51°00' E 001°20'5 9.4
2017-Jul-19 10:01N 51°03' E 001°25'4 8.8
2017-Jul-19 09:30N 51°06' E 001°30'4 7.7
2017-Jul-19 09:00N 51°08' E 001°35'4 7.4
2017-Jul-19 08:31N 51°11' E 001°40'4 7.4
2017-Jul-19 08:00N 51°13' E 001°44'4 8.4
2017-Jul-19 07:30N 51°17' E 001°48'5 9.4
2017-Jul-19 07:00N 51°21' E 001°52'5 9.6
2017-Jul-19 06:31N 51°25' E 001°56'5 9.8
2017-Jul-19 06:00N 51°28' E 002°01'510.1
2017-Jul-19 05:31N 51°32' E 002°06'5 9.8
2017-Jul-19 05:01N 51°36' E 002°11'5 9.8
2017-Jul-19 04:30N 51°40' E 002°17'510.0
2017-Jul-19 04:00N 51°43' E 002°22'510.1
2017-Jul-19 03:30N 51°47' E 002°27'510.5
2017-Jul-19 03:00N 51°51' E 002°33'510.2
2017-Jul-19 02:30N 51°55' E 002°38'510.0
2017-Jul-19 02:00N 51°59' E 002°43'5 9.9
2017-Jul-19 01:30N 52°03' E 002°48'510.1
2017-Jul-19 01:00N 52°06' E 002°54'021.3
2017-Jul-19 01:00N 52°06' E 002°54'511.0 080 / 241011.0 5.4 19.711.818.5
2017-Jul-19 00:31N 52°10' E 002°60'510.2
2017-Jul-19 00:00N 52°14' E 003°06'510.0
2017-Jul-18 23:30N 52°17' E 003°12'510.2
2017-Jul-18 23:00N 52°19' E 003°19'510.2
2017-Jul-18 22:30N 52°22' E 003°27'510.1
2017-Jul-18 22:00N 52°24' E 003°34'510.0
2017-Jul-18 21:30N 52°27' E 003°41'5 9.8
2017-Jul-18 21:00N 52°29' E 003°48'5 9.8
2017-Jul-18 20:30N 52°31' E 003°55'5 9.7
2017-Jul-18 20:00N 52°31' E 004°03'5 9.8
2017-Jul-18 19:30N 52°31' E 004°11'5 9.9
2017-Jul-18 19:00N 52°30' E 004°19'5 9.3
2017-Jul-18 18:31N 52°29' E 004°27'510.1
2017-Jul-18 18:01N 52°28' E 004°35'1 1.9
2017-Jul-18 17:31N 52°28' E 004°36'1 2.0
2017-Jul-18 17:00N 52°28' E 004°38'4 7.6
2017-Jul-18 16:30N 52°26' E 004°43'4 8.2
2017-Jul-18 16:00N 52°25' E 004°50'3 6.6
2017-Jul-18 15:30N 52°23' E 004°54'0 0.9
2017-Jul-18 14:58N 52°23' E 004°55'0 0.0
2017-Jul-18 13:58N 52°23' E 004°55'0 0.0
2017-Jul-18 13:28N 52°23' E 004°55'0 0.0
2017-Jul-18 12:58N 52°23' E 004°55'0 0.0
2017-Jul-18 12:28N 52°23' E 004°55'510.2
2017-Jul-18 12:00N 52°18' E 004°54'558.2 050 / 141020.010.8 19.611.922.3
2017-Jul-18 11:55N 52°23' E 004°55'0 0.0
2017-Jul-18 11:28N 52°23' E 004°55'0 0.0
2017-Jul-18 10:58N 52°23' E 004°55'0 0.0
2017-Jul-18 10:28N 52°23' E 004°55'0 0.0
2017-Jul-18 09:58N 52°23' E 004°55'0 0.0
2017-Jul-18 09:25N 52°23' E 004°55'0 0.0
2017-Jul-18 08:58N 52°23' E 004°55'0 0.0
2017-Jul-18 08:25N 52°23' E 004°55'0 0.0
2017-Jul-18 07:58N 52°23' E 004°55'0 0.0
2017-Jul-18 07:28N 52°23' E 004°55'0 0.0
2017-Jul-18 06:55N 52°23' E 004°55'0 0.0
2017-Jul-18 06:28N 52°23' E 004°55'0 0.0
2017-Jul-18 05:58N 52°23' E 004°55'0 0.0
2017-Jul-18 05:28N 52°23' E 004°55'0 0.0
2017-Jul-18 04:58N 52°23' E 004°55'0 0.0
2017-Jul-18 04:28N 52°23' E 004°55'0 0.0
2017-Jul-18 03:58N 52°23' E 004°55'0 0.0
2017-Jul-18 03:30N 52°23' E 004°55'0 0.8
2017-Jul-18 03:01N 52°23' E 004°55'1 1.3
2017-Jul-18 02:30N 52°23' E 004°54'3 6.0
2017-Jul-18 02:01N 52°25' E 004°51'4 7.4
2017-Jul-18 01:30N 52°26' E 004°45'4 8.0
2017-Jul-18 01:00N 52°28' E 004°39'2 3.3
2017-Jul-18 00:31N 52°28' E 004°37'1 1.0
2017-Jul-18 00:00N 52°28' E 004°36'3 6.6
2017-Jul-17 23:31N 52°28' E 004°30'4 8.0
2017-Jul-17 23:01N 52°29' E 004°24'713.2
2017-Jul-17 22:30N 52°29' E 004°13'815.1
2017-Jul-17 22:00N 52°35' E 004°05'816.1
2017-Jul-17 21:31N 52°43' E 004°01'816.1
2017-Jul-17 21:01N 52°50' E 003°58'815.7
2017-Jul-17 20:31N 52°58' E 004°02'816.1
2017-Jul-17 20:01N 53°03' E 004°12'815.9
2017-Jul-17 19:30N 53°08' E 004°22'815.9
2017-Jul-17 19:01N 53°15' E 004°27'816.3
2017-Jul-17 18:30N 53°23' E 004°31'816.5
2017-Jul-17 18:00N 53°31' E 004°36'816.5
2017-Jul-17 17:29N 53°39' E 004°41'816.6
2017-Jul-17 16:59N 53°47' E 004°46'816.5
2017-Jul-17 16:30N 53°54' E 004°51'816.5
2017-Jul-17 16:00N 54°02' E 004°57'917.0
2017-Jul-17 15:29N 54°10' E 005°03'817.0
2017-Jul-17 15:00N 54°17' E 005°11'816.7
2017-Jul-17 14:31N 54°23' E 005°20'916.7
2017-Jul-17 13:59N 54°30' E 005°29'816.6
2017-Jul-17 13:30N 54°36' E 005°38'916.7
2017-Jul-17 13:00N 54°43' E 005°45'816.9
2017-Jul-17 12:30N 54°51' E 005°50'3 7.0
2017-Jul-17 12:00N 54°54' E 005°54'5437.7 290 / 191021.010.8 14.8 5.517.1
2017-Jul-17 11:59N 54°59' E 005°57'816.9
2017-Jul-17 11:30N 55°06' E 006°04'916.7
2017-Jul-17 10:59N 55°14' E 006°11'817.0
2017-Jul-17 10:30N 55°21' E 006°18'917.0
2017-Jul-17 09:59N 55°28' E 006°26'816.9
2017-Jul-17 09:31N 55°36' E 006°32'916.9
2017-Jul-17 09:00N 55°43' E 006°40'816.9
2017-Jul-17 08:30N 55°50' E 006°47'916.8
2017-Jul-17 07:59N 55°58' E 006°54'816.8
2017-Jul-17 07:30N 56°06' E 006°60'816.6
2017-Jul-17 06:59N 56°13' E 007°09'916.9
2017-Jul-17 06:29N 56°20' E 007°17'10416.1
2017-Jul-17 00:00N 57°48' E 009°00'1619.5
2017-Jul-16 23:10N 57°60' E 009°21'1717.0
2017-Jul-16 22:08N 58°13' E 009°41'316.9
2017-Jul-16 21:58N 58°16' E 009°44'816.8
2017-Jul-16 21:31N 58°22' E 009°54'816.7
2017-Jul-16 21:00N 58°28' E 010°04'916.5
2017-Jul-16 20:27N 58°35' E 010°14'716.6
2017-Jul-16 20:01N 58°41' E 010°23'816.6
2017-Jul-16 19:31N 58°49' E 010°29'917.7
2017-Jul-16 19:00N 58°58' E 010°33'714.8
2017-Jul-16 18:30N 59°05' E 010°33'815.7
2017-Jul-16 18:00N 59°12' E 010°38'816.9
2017-Jul-16 17:30N 59°21' E 010°35'917.2
2017-Jul-16 17:00N 59°29' E 010°34'817.0
2017-Jul-16 16:30N 59°38' E 010°38'712.9
2017-Jul-16 16:00N 59°44' E 010°33'715.0
2017-Jul-16 15:31N 59°51' E 010°36'5 9.9
2017-Jul-16 15:00N 59°54' E 010°44'0 0.2
2017-Jul-16 14:25N 59°54' E 010°44'0 0.0
2017-Jul-16 13:58N 59°54' E 010°44'0 0.0
2017-Jul-16 13:28N 59°54' E 010°44'0 0.0
2017-Jul-16 12:58N 59°54' E 010°44'0 0.0
2017-Jul-16 12:28N 59°54' E 010°44'1 2.4
2017-Jul-16 12:00N 59°54' E 010°42'136.0 220 / 41009.010.8 18.616.119.2
2017-Jul-16 11:58N 59°54' E 010°44'0 0.0
2017-Jul-16 11:28N 59°54' E 010°44'0 0.0
2017-Jul-16 10:58N 59°54' E 010°44'0 0.0
2017-Jul-16 10:28N 59°54' E 010°44'0 0.0
2017-Jul-16 09:58N 59°54' E 010°44'0 0.0
2017-Jul-16 09:25N 59°54' E 010°44'0 0.0
2017-Jul-16 08:58N 59°54' E 010°44'0 0.0
2017-Jul-16 08:28N 59°54' E 010°44'0 0.0
2017-Jul-16 07:52N 59°54' E 010°44'0 0.0
2017-Jul-16 07:25N 59°54' E 010°44'0 0.0
2017-Jul-16 06:58N 59°54' E 010°44'0 0.0
2017-Jul-16 06:25N 59°54' E 010°44'0 0.0
2017-Jul-16 05:58N 59°54' E 010°44'0 0.0
2017-Jul-16 05:25N 59°54' E 010°44'0 0.0
2017-Jul-16 04:58N 59°54' E 010°44'0 0.0
2017-Jul-16 04:30N 59°54' E 010°44'0 0.5
2017-Jul-16 04:00N 59°54' E 010°44'3 6.6
2017-Jul-16 03:30N 59°52' E 010°39'5 9.6
2017-Jul-16 03:00N 59°48' E 010°35'612.3
2017-Jul-16 02:30N 59°42' E 010°36'611.9
2017-Jul-16 02:00N 59°36' E 010°38'13776.3
2017-Jul-16 02:00N 59°24' E 010°30'511.2 200 / 191014.0 5.4 14.7 7.818.2
2017-Jul-16 01:30N 59°29' E 010°35'918.2
2017-Jul-16 01:00N 59°20' E 010°37'918.2
2017-Jul-16 00:30N 59°11' E 010°40'713.5
2017-Jul-16 00:00N 59°05' E 010°35'4 7.7
2017-Jul-15 23:31N 59°01' E 010°34'4 7.6
2017-Jul-15 23:00N 58°57' E 010°32'4 7.6
2017-Jul-15 22:31N 58°53' E 010°31'4 7.4
2017-Jul-15 22:01N 58°50' E 010°30'4 7.3
2017-Jul-15 21:31N 58°46' E 010°29'4 7.5
2017-Jul-15 21:01N 58°42' E 010°28'4 7.3
2017-Jul-15 20:30N 58°39' E 010°30'4 7.5
2017-Jul-15 19:57N 58°35' E 010°33'9 7.5
2017-Jul-15 18:46N 58°27' E 010°39'2 7.3
2017-Jul-15 18:31N 58°25' E 010°40'4 7.5
2017-Jul-15 17:59N 58°21' E 010°42'4 7.5
2017-Jul-15 17:29N 58°18' E 010°44'6 7.5
2017-Jul-15 16:39N 58°12' E 010°50'2 7.4
2017-Jul-15 16:24N 58°10' E 010°51'511.2
2017-Jul-15 16:00N 58°06' E 010°48'343.8 210 / 101018.010.8 16.6 17.4
2017-Jul-15 15:55N 58°07' E 010°54'3 7.7
2017-Jul-15 15:29N 58°04' E 010°57'4 7.7
2017-Jul-15 14:58N 58°00' E 011°00'7 7.7
2017-Jul-15 14:00N 57°53' E 011°04'4 7.5
2017-Jul-15 13:29N 57°50' E 011°07'4 7.4
2017-Jul-15 13:01N 57°47' E 011°10'4 7.5
2017-Jul-15 12:30N 57°43' E 011°13'4 7.6
2017-Jul-15 12:01N 57°40' E 011°16'4268.6
2017-Jul-15 12:00N 57°36' E 011°12'4 8.8 160 / 121018.010.8 17.413.417.2
2017-Jul-15 11:31N 57°37' E 011°20'4 7.7
2017-Jul-15 11:00N 57°33' E 011°22'4 7.7
2017-Jul-15 10:31N 57°29' E 011°25'4 8.2
2017-Jul-15 10:01N 57°26' E 011°28'4 7.6
2017-Jul-15 09:30N 57°22' E 011°30'4 7.5
2017-Jul-15 09:00N 57°18' E 011°33'4 7.4
2017-Jul-15 08:30N 57°15' E 011°35'4 7.4
2017-Jul-15 07:59N 57°11' E 011°37'18 7.5
2017-Jul-15 05:33N 56°54' E 011°49'20 7.5
2017-Jul-15 02:57N 56°35' E 011°58'12 7.6
2017-Jul-15 01:23N 56°24' E 012°03'3 7.6
2017-Jul-15 01:00N 56°21' E 012°04'9 8.8
2017-Jul-15 00:00N 56°12' E 012°06'555.1 240 / 41017.0 5.4 15.5 7.118.0
2017-Jul-14 23:54N 56°15' E 012°13'3 7.2
2017-Jul-14 23:30N 56°13' E 012°17'3 7.0
2017-Jul-14 23:01N 56°11' E 012°22'4 7.0
2017-Jul-14 22:30N 56°09' E 012°28'4 7.2
2017-Jul-14 22:00N 56°07' E 012°33'4 7.3
2017-Jul-14 21:30N 56°05' E 012°38'4 7.5
2017-Jul-14 21:00N 56°01' E 012°41'4 7.5
2017-Jul-14 20:30N 55°58' E 012°43'4 7.3
2017-Jul-14 20:01N 55°54' E 012°44'4 7.2
2017-Jul-14 19:30N 55°51' E 012°45'4 7.3
2017-Jul-14 19:00N 55°47' E 012°43'3 6.8
2017-Jul-14 18:30N 55°44' E 012°40'3 5.9
2017-Jul-14 18:00N 55°42' E 012°36'0 0.0
2017-Jul-14 17:29N 55°42' E 012°36'0 0.0
2017-Jul-14 16:59N 55°42' E 012°36'0 0.0
2017-Jul-14 16:29N 55°42' E 012°36'0 0.0
2017-Jul-14 15:59N 55°42' E 012°36'0 0.0
2017-Jul-14 15:29N 55°42' E 012°36'0 0.0
2017-Jul-14 14:59N 55°42' E 012°36'0 0.0
2017-Jul-14 14:29N 55°42' E 012°36'0 0.0
2017-Jul-14 13:59N 55°42' E 012°36'0 0.0
2017-Jul-14 13:29N 55°42' E 012°36'0 0.0
2017-Jul-14 12:59N 55°42' E 012°36'0 0.0
2017-Jul-14 12:29N 55°42' E 012°36'0 0.3
2017-Jul-14 12:00N 55°42' E 012°36'0105.0 300 / 81015.010.8 17.5 5.018.3
2017-Jul-14 11:59N 55°42' E 012°36'0 0.0
2017-Jul-14 11:29N 55°42' E 012°36'0 0.0
2017-Jul-14 10:59N 55°42' E 012°36'0 0.0
2017-Jul-14 10:29N 55°42' E 012°36'0 0.0
2017-Jul-14 09:59N 55°42' E 012°36'0 0.0
2017-Jul-14 09:29N 55°42' E 012°36'0 0.0
2017-Jul-14 08:59N 55°42' E 012°36'0 0.0
2017-Jul-14 08:29N 55°42' E 012°36'0 0.0
2017-Jul-14 07:59N 55°42' E 012°36'0 0.0
2017-Jul-14 07:29N 55°42' E 012°36'0 0.0
2017-Jul-14 06:59N 55°42' E 012°36'0 0.0
2017-Jul-14 06:29N 55°42' E 012°36'0 0.0
2017-Jul-14 05:59N 55°42' E 012°36'0 0.0
2017-Jul-14 05:29N 55°42' E 012°36'0 0.0
2017-Jul-14 04:59N 55°42' E 012°36'0 0.0
2017-Jul-14 04:29N 55°42' E 012°36'0 0.0
2017-Jul-14 03:59N 55°42' E 012°36'0 0.0
2017-Jul-14 03:30N 55°42' E 012°36'0 0.0
2017-Jul-14 03:00N 55°42' E 012°36'0 0.0
2017-Jul-14 02:30N 55°42' E 012°36'0 0.0
2017-Jul-14 02:00N 55°42' E 012°36'0 0.0
2017-Jul-14 01:30N 55°42' E 012°36'0 0.0
2017-Jul-14 01:00N 55°42' E 012°36'0 0.0
2017-Jul-14 00:29N 55°42' E 012°36'0 0.0
2017-Jul-14 00:00N 55°42' E 012°36'0 9.4
2017-Jul-14 00:00N 55°42' E 012°36'0 0.3 260 / 41017.0 5.4 12.4 0.618.4
2017-Jul-13 23:30N 55°42' E 012°36'0 0.0
2017-Jul-13 23:00N 55°42' E 012°36'0 0.0
2017-Jul-13 22:30N 55°42' E 012°36'0 0.0
2017-Jul-13 22:00N 55°42' E 012°36'0 0.0
2017-Jul-13 21:30N 55°42' E 012°36'0 0.0
2017-Jul-13 21:00N 55°42' E 012°36'0 0.0
2017-Jul-13 20:30N 55°42' E 012°36'0 0.0
2017-Jul-13 20:00N 55°42' E 012°36'0 0.0
2017-Jul-13 19:30N 55°42' E 012°36'0 0.0
2017-Jul-13 19:00N 55°42' E 012°36'0 0.0
2017-Jul-13 18:30N 55°42' E 012°36'0 0.0
2017-Jul-13 18:00N 55°42' E 012°36'0 0.0
2017-Jul-13 17:29N 55°42' E 012°36'0 0.0
2017-Jul-13 16:59N 55°42' E 012°36'0 0.0
2017-Jul-13 16:29N 55°42' E 012°36'0 0.0
2017-Jul-13 15:59N 55°42' E 012°36'0 0.0
2017-Jul-13 15:29N 55°42' E 012°36'0 0.0
2017-Jul-13 14:59N 55°42' E 012°36'0 0.0
2017-Jul-13 14:29N 55°42' E 012°36'0 0.0
2017-Jul-13 13:58N 55°42' E 012°36'0 0.0
2017-Jul-13 13:28N 55°42' E 012°36'0 0.0
2017-Jul-13 13:00N 55°42' E 012°36'0 9.5
2017-Jul-13 13:00N 55°42' E 012°36'0 0.3 1017.010.8 18.2 9.018.0
2017-Jul-13 12:30N 55°42' E 012°36'0 0.0
2017-Jul-13 12:00N 55°42' E 012°36'0 0.0
2017-Jul-13 11:30N 55°42' E 012°36'0 0.0
2017-Jul-13 11:00N 55°42' E 012°36'0 0.0
2017-Jul-13 10:29N 55°42' E 012°36'0 0.0
2017-Jul-13 09:59N 55°42' E 012°36'0 0.3
2017-Jul-13 09:30N 55°42' E 012°36'1 2.5
2017-Jul-13 09:00N 55°43' E 012°38'612.5
2017-Jul-13 08:30N 55°49' E 012°43'815.9
2017-Jul-13 08:00N 55°56' E 012°39'714.9
2017-Jul-13 07:30N 56°04' E 012°38'816.9
2017-Jul-13 07:01N 56°09' E 012°26'816.1
2017-Jul-13 06:30N 56°13' E 012°13'6812.3
2017-Jul-13 00:58N 55°16' E 011°04'714.7
2017-Jul-13 00:30N 55°10' E 011°03'816.7
2017-Jul-13 00:00N 55°02' E 011°02'2121.2
2017-Jul-13 00:00N 55°00' E 011°00'612.6 290 / 301014.0 5.4 12.4 7.917.7
2017-Jul-12 23:30N 54°55' E 010°55'815.8
2017-Jul-12 23:00N 54°47' E 010°53'714.0
2017-Jul-12 22:30N 54°41' E 010°58'815.6
2017-Jul-12 22:00N 54°37' E 011°10'815.8
2017-Jul-12 21:30N 54°34' E 011°22'816.0
2017-Jul-12 21:00N 54°29' E 011°34'816.0
2017-Jul-12 20:30N 54°26' E 011°46'816.2
2017-Jul-12 20:00N 54°21' E 011°57'814.8
2017-Jul-12 19:29N 54°15' E 012°04'4 8.8
2017-Jul-12 19:00N 54°10' E 012°06'  
Track history (hours):
 
Tides and Currents Weather Stations Pressure Air Temp Water Temp Dewpoint Dewpoint Depression Visibility Wind Speed Wind Dir Waves Ship Positions

Celebrity Silhouette

Last reported at 2017-Jul-22 18:22 UTC. Time now 2017-Jul-22 18:34 UTC.
Position N 53°24' W 003°00'.

Length 319 m; draft 8.6 m.

Type: Passenger vessel. MMSI: 248939000.

Date/timePositionNaut miles runAvg speedWind from/ knotsBaromVisibWave heightAir tempDewpointWater temp
2017-Jul-22 18:22N 53°24' W 003°00'0 0.0
2017-Jul-22 17:43N 53°24' W 003°00'0 0.0
2017-Jul-22 17:25N 53°24' W 003°00'3068.7
2017-Jul-22 17:00N 53°54' W 003°00'301521.3 270 / 81008.0 5.4 23.711.819.2
2017-Jul-22 16:58N 53°24' W 003°00'0 0.0
2017-Jul-22 16:25N 53°24' W 003°00'0 0.0
2017-Jul-22 15:55N 53°24' W 003°00'0 0.0
2017-Jul-22 15:25N 53°24' W 003°00'0 0.0
2017-Jul-22 14:52N 53°24' W 003°00'0 0.0
2017-Jul-22 13:37N 53°24' W 003°00'0 0.0
2017-Jul-22 13:25N 53°24' W 003°00'0 0.0
2017-Jul-22 12:52N 53°24' W 003°00'0 0.0
2017-Jul-22 12:28N 53°24' W 003°00'0 0.9
2017-Jul-22 12:00N 53°24' W 003°00'021.9 210 / 51007.010.8 17.5 5.018.8
2017-Jul-22 11:58N 53°24' W 003°00'0 0.0
2017-Jul-22 11:25N 53°24' W 003°00'0 0.0
2017-Jul-22 10:46N 53°24' W 003°00'0 0.0
2017-Jul-22 10:16N 53°24' W 003°00'0 0.0
2017-Jul-22 09:58N 53°24' W 003°00'0 0.0
2017-Jul-22 09:28N 53°24' W 003°00'0 0.0
2017-Jul-22 08:52N 53°24' W 003°00'0 0.0
2017-Jul-22 08:25N 53°24' W 003°00'0 0.0
2017-Jul-22 07:58N 53°24' W 003°00'0 0.0
2017-Jul-22 07:28N 53°24' W 003°00'0 0.0
2017-Jul-22 06:58N 53°24' W 003°00'0 0.0
2017-Jul-22 06:22N 53°24' W 003°00'0 0.0
2017-Jul-22 05:58N 53°24' W 003°00'0 0.0
2017-Jul-22 05:28N 53°24' W 003°00'0 0.0
2017-Jul-22 04:55N 53°24' W 003°00'0 0.0
2017-Jul-22 04:28N 53°24' W 003°00'0 0.0
2017-Jul-22 03:58N 53°24' W 003°00'0 0.0
2017-Jul-22 03:29N 53°24' W 003°00'0 0.0
2017-Jul-22 03:00N 53°24' W 003°00'0 0.2
2017-Jul-22 02:30N 53°24' W 003°00'1 1.1
2017-Jul-22 02:00N 53°25' W 003°01'4 8.1
2017-Jul-22 01:30N 53°28' W 003°04'510.0
2017-Jul-22 01:00N 53°32' W 003°10'510.8
2017-Jul-22 00:30N 53°32' W 003°19'2 3.4
2017-Jul-22 00:00N 53°30' W 003°18'61478.4 150 / 201004.0 5.4 14.010.517.0
2017-Jul-21 23:59N 53°31' W 003°28'713.7
2017-Jul-21 23:30N 53°31' W 003°39'713.8
2017-Jul-21 23:00N 53°31' W 003°51'510.4
2017-Jul-21 22:30N 53°31' W 003°60'8811.2
2017-Jul-21 14:40N 52°22' W 005°30'211.1
2017-Jul-21 14:30N 52°20' W 005°31'510.4
2017-Jul-21 14:00N 52°15' W 005°34'5 9.5
2017-Jul-21 13:30N 52°11' W 005°37'1711.3
2017-Jul-21 12:00N 51°54' W 005°42'12 6.6 200 / 111001.010.8 14.6 5.716.7
2017-Jul-21 10:06N 51°43' W 005°50'1 9.1
2017-Jul-21 10:00N 51°42' W 005°50'6 9.3
2017-Jul-21 09:18N 51°35' W 005°52'3 9.3
2017-Jul-21 09:00N 51°33' W 005°53'5 9.7
2017-Jul-21 08:30N 51°28' W 005°54'2310.4
2017-Jul-21 06:20N 51°05' W 005°54'410.6
2017-Jul-21 06:00N 51°02' W 005°54'510.7
2017-Jul-21 05:30N 50°56' W 005°54'510.8
2017-Jul-21 05:00N 50°51' W 005°54'3288.3
2017-Jul-21 05:00N 50°48' W 005°54'2 5.1 200 / 401000.0 5.4 15.213.917.8
2017-Jul-21 04:30N 50°46' W 005°53'510.5
2017-Jul-21 04:00N 50°40' W 005°54'510.3
2017-Jul-21 03:30N 50°35' W 005°54'510.4
2017-Jul-21 03:00N 50°30' W 005°54'510.6
2017-Jul-21 02:30N 50°25' W 005°54'510.7
2017-Jul-21 02:00N 50°19' W 005°54'510.8
2017-Jul-21 01:30N 50°14' W 005°54'611.5
2017-Jul-21 01:00N 50°08' W 005°54'611.5
2017-Jul-21 00:30N 50°02' W 005°54'816.2
2017-Jul-21 00:00N 49°54' W 005°54'65 9.7 210 / 251007.0 5.4 15.814.517.4
2017-Jul-20 17:16N 49°33' W 004°19'3 8.8
2017-Jul-20 16:58N 49°32' W 004°15'4 8.5
2017-Jul-20 16:28N 49°32' W 004°08'4 8.1
2017-Jul-20 16:00N 49°31' W 004°02'4 7.8
2017-Jul-20 15:30N 49°31' W 003°56'4 7.8
2017-Jul-20 15:00N 49°30' W 003°50'1111.2
2017-Jul-20 14:00N 49°24' W 003°36'418.6 230 / 221014.010.8 15.7 4.517.0
2017-Jul-20 13:48N 49°28' W 003°36'2 8.0
2017-Jul-20 13:30N 49°28' W 003°32'4 8.5
2017-Jul-20 13:00N 49°27' W 003°26'4 8.2
2017-Jul-20 12:30N 49°27' W 003°20'4 8.7
2017-Jul-20 12:00N 49°26' W 003°13'40 4.8
2017-Jul-20 03:40N 49°31' W 002°12'214.3
2017-Jul-20 03:31N 49°33' W 002°11'13 8.6
2017-Jul-20 02:00N 49°45' W 002°04'5 9.7
2017-Jul-20 01:30N 49°50' W 002°02'510.7
2017-Jul-20 01:00N 49°55' W 001°59'510.9
2017-Jul-20 00:30N 49°60' W 001°57'510.9
2017-Jul-20 00:00N 50°05' W 001°54'5345.6
2017-Jul-20 00:00N 50°00' W 001°54'919.1 190 / 131006.0 5.4 17.6 2.116.9
2017-Jul-19 23:30N 50°09' W 001°49'510.9
2017-Jul-19 23:00N 50°11' W 001°41'510.9
2017-Jul-19 22:30N 50°12' W 001°33'510.8
2017-Jul-19 22:00N 50°14' W 001°25'511.0
2017-Jul-19 21:30N 50°15' W 001°17'810.9
2017-Jul-19 20:46N 50°17' W 001°05'410.9
2017-Jul-19 20:25N 50°19' W 000°59'511.1
2017-Jul-19 20:00N 50°20' W 000°52'610.8
2017-Jul-19 19:28N 50°22' W 000°43'910.2
2017-Jul-19 18:33N 50°24' W 000°30'1 9.9
2017-Jul-19 18:30N 50°24' W 000°29'5 9.5
2017-Jul-19 18:00N 50°26' W 000°22'5 9.2
2017-Jul-19 17:30N 50°27' W 000°15'5 9.1
2017-Jul-19 17:00N 50°28' W 000°08'4 8.9
2017-Jul-19 16:30N 50°30' W 000°01'4 8.9
2017-Jul-19 16:01N 50°31' E 000°05'5 9.2
2017-Jul-19 15:30N 50°33' E 000°12'5 9.6
2017-Jul-19 15:00N 50°34' E 000°19'510.0
2017-Jul-19 14:30N 50°36' E 000°27'510.3
2017-Jul-19 14:01N 50°38' E 000°34'510.4
2017-Jul-19 13:30N 50°41' E 000°41'510.4
2017-Jul-19 13:01N 50°44' E 000°47'510.5
2017-Jul-19 12:30N 50°47' E 000°54'510.6
2017-Jul-19 12:01N 50°50' E 001°01'2133.1
2017-Jul-19 12:00N 50°48' E 001°00'714.7 240 / 211007.0 5.4 18.914.218.0
2017-Jul-19 11:30N 50°54' E 001°07'510.3
2017-Jul-19 11:00N 50°57' E 001°14'510.0
2017-Jul-19 10:30N 51°00' E 001°20'5 9.4
2017-Jul-19 10:01N 51°03' E 001°25'4 8.8
2017-Jul-19 09:30N 51°06' E 001°30'4 7.7
2017-Jul-19 09:00N 51°08' E 001°35'4 7.4
2017-Jul-19 08:31N 51°11' E 001°40'4 7.4
2017-Jul-19 08:00N 51°13' E 001°44'4 8.4
2017-Jul-19 07:30N 51°17' E 001°48'5 9.4
2017-Jul-19 07:00N 51°21' E 001°52'5 9.6
2017-Jul-19 06:31N 51°25' E 001°56'5 9.8
2017-Jul-19 06:00N 51°28' E 002°01'510.1
2017-Jul-19 05:31N 51°32' E 002°06'5 9.8
2017-Jul-19 05:01N 51°36' E 002°11'5 9.8
2017-Jul-19 04:30N 51°40' E 002°17'510.0
2017-Jul-19 04:00N 51°43' E 002°22'510.1
2017-Jul-19 03:30N 51°47' E 002°27'510.5
2017-Jul-19 03:00N 51°51' E 002°33'510.2
2017-Jul-19 02:30N 51°55' E 002°38'510.0
2017-Jul-19 02:00N 51°59' E 002°43'5 9.9
2017-Jul-19 01:30N 52°03' E 002°48'510.1
2017-Jul-19 01:00N 52°06' E 002°54'021.3
2017-Jul-19 01:00N 52°06' E 002°54'511.0 080 / 241011.0 5.4 19.711.818.5
2017-Jul-19 00:31N 52°10' E 002°60'510.2
2017-Jul-19 00:00N 52°14' E 003°06'510.0
2017-Jul-18 23:30N 52°17' E 003°12'510.2
2017-Jul-18 23:00N 52°19' E 003°19'510.2
2017-Jul-18 22:30N 52°22' E 003°27'510.1
2017-Jul-18 22:00N 52°24' E 003°34'510.0
2017-Jul-18 21:30N 52°27' E 003°41'5 9.8
2017-Jul-18 21:00N 52°29' E 003°48'5 9.8
2017-Jul-18 20:30N 52°31' E 003°55'5 9.7
2017-Jul-18 20:00N 52°31' E 004°03'5 9.8
2017-Jul-18 19:30N 52°31' E 004°11'5 9.9
2017-Jul-18 19:00N 52°30' E 004°19'5 9.3
2017-Jul-18 18:31N 52°29' E 004°27'510.1
2017-Jul-18 18:01N 52°28' E 004°35'1 1.9
2017-Jul-18 17:31N 52°28' E 004°36'1 2.0
2017-Jul-18 17:00N 52°28' E 004°38'4 7.6
2017-Jul-18 16:30N 52°26' E 004°43'4 8.2
2017-Jul-18 16:00N 52°25' E 004°50'3 6.6
2017-Jul-18 15:30N 52°23' E 004°54'0 0.9
2017-Jul-18 14:58N 52°23' E 004°55'0 0.0
2017-Jul-18 13:58N 52°23' E 004°55'0 0.0
2017-Jul-18 13:28N 52°23' E 004°55'0 0.0
2017-Jul-18 12:58N 52°23' E 004°55'0 0.0
2017-Jul-18 12:28N 52°23' E 004°55'510.2
2017-Jul-18 12:00N 52°18' E 004°54'558.2 050 / 141020.010.8 19.611.922.3
2017-Jul-18 11:55N 52°23' E 004°55'0 0.0
2017-Jul-18 11:28N 52°23' E 004°55'0 0.0
2017-Jul-18 10:58N 52°23' E 004°55'0 0.0
2017-Jul-18 10:28N 52°23' E 004°55'0 0.0
2017-Jul-18 09:58N 52°23' E 004°55'0 0.0
2017-Jul-18 09:25N 52°23' E 004°55'0 0.0
2017-Jul-18 08:58N 52°23' E 004°55'0 0.0
2017-Jul-18 08:25N 52°23' E 004°55'0 0.0
2017-Jul-18 07:58N 52°23' E 004°55'0 0.0
2017-Jul-18 07:28N 52°23' E 004°55'0 0.0
2017-Jul-18 06:55N 52°23' E 004°55'0 0.0
2017-Jul-18 06:28N 52°23' E 004°55'0 0.0
2017-Jul-18 05:58N 52°23' E 004°55'0 0.0
2017-Jul-18 05:28N 52°23' E 004°55'0 0.0
2017-Jul-18 04:58N 52°23' E 004°55'0 0.0
2017-Jul-18 04:28N 52°23' E 004°55'0 0.0
2017-Jul-18 03:58N 52°23' E 004°55'0 0.0
2017-Jul-18 03:30N 52°23' E 004°55'0 0.8
2017-Jul-18 03:01N 52°23' E 004°55'1 1.3
2017-Jul-18 02:30N 52°23' E 004°54'3 6.0
2017-Jul-18 02:01N 52°25' E 004°51'4 7.4
2017-Jul-18 01:30N 52°26' E 004°45'4 8.0
2017-Jul-18 01:00N 52°28' E 004°39'2 3.3
2017-Jul-18 00:31N 52°28' E 004°37'1 1.0
2017-Jul-18 00:00N 52°28' E 004°36'3 6.6
2017-Jul-17 23:31N 52°28' E 004°30'4 8.0
2017-Jul-17 23:01N 52°29' E 004°24'713.2
2017-Jul-17 22:30N 52°29' E 004°13'815.1
2017-Jul-17 22:00N 52°35' E 004°05'816.1
2017-Jul-17 21:31N 52°43' E 004°01'816.1
2017-Jul-17 21:01N 52°50' E 003°58'815.7
2017-Jul-17 20:31N 52°58' E 004°02'816.1
2017-Jul-17 20:01N 53°03' E 004°12'815.9
2017-Jul-17 19:30N 53°08' E 004°22'815.9
2017-Jul-17 19:01N 53°15' E 004°27'816.3
2017-Jul-17 18:30N 53°23' E 004°31'816.5
2017-Jul-17 18:00N 53°31' E 004°36'816.5
2017-Jul-17 17:29N 53°39' E 004°41'816.6
2017-Jul-17 16:59N 53°47' E 004°46'816.5
2017-Jul-17 16:30N 53°54' E 004°51'816.5
2017-Jul-17 16:00N 54°02' E 004°57'917.0
2017-Jul-17 15:29N 54°10' E 005°03'817.0
2017-Jul-17 15:00N 54°17' E 005°11'816.7
2017-Jul-17 14:31N 54°23' E 005°20'916.7
2017-Jul-17 13:59N 54°30' E 005°29'816.6
2017-Jul-17 13:30N 54°36' E 005°38'916.7
2017-Jul-17 13:00N 54°43' E 005°45'816.9
2017-Jul-17 12:30N 54°51' E 005°50'3 7.0
2017-Jul-17 12:00N 54°54' E 005°54'5437.7 290 / 191021.010.8 14.8 5.517.1
2017-Jul-17 11:59N 54°59' E 005°57'816.9
2017-Jul-17 11:30N 55°06' E 006°04'916.7
2017-Jul-17 10:59N 55°14' E 006°11'817.0
2017-Jul-17 10:30N 55°21' E 006°18'917.0
2017-Jul-17 09:59N 55°28' E 006°26'816.9
2017-Jul-17 09:31N 55°36' E 006°32'916.9
2017-Jul-17 09:00N 55°43' E 006°40'816.9
2017-Jul-17 08:30N 55°50' E 006°47'916.8
2017-Jul-17 07:59N 55°58' E 006°54'816.8
2017-Jul-17 07:30N 56°06' E 006°60'816.6
2017-Jul-17 06:59N 56°13' E 007°09'916.9
2017-Jul-17 06:29N 56°20' E 007°17'10416.1
2017-Jul-17 00:00N 57°48' E 009°00'1619.5
2017-Jul-16 23:10N 57°60' E 009°21'1717.0
2017-Jul-16 22:08N 58°13' E 009°41'316.9
2017-Jul-16 21:58N 58°16' E 009°44'816.8
2017-Jul-16 21:31N 58°22' E 009°54'816.7
2017-Jul-16 21:00N 58°28' E 010°04'916.5
2017-Jul-16 20:27N 58°35' E 010°14'716.6
2017-Jul-16 20:01N 58°41' E 010°23'816.6
2017-Jul-16 19:31N 58°49' E 010°29'917.7
2017-Jul-16 19:00N 58°58' E 010°33'714.8
2017-Jul-16 18:30N 59°05' E 010°33'815.7
2017-Jul-16 18:00N 59°12' E 010°38'816.9
2017-Jul-16 17:30N 59°21' E 010°35'917.2
2017-Jul-16 17:00N 59°29' E 010°34'817.0
2017-Jul-16 16:30N 59°38' E 010°38'712.9
2017-Jul-16 16:00N 59°44' E 010°33'715.0
2017-Jul-16 15:31N 59°51' E 010°36'5 9.9
2017-Jul-16 15:00N 59°54' E 010°44'0 0.2
2017-Jul-16 14:25N 59°54' E 010°44'0 0.0
2017-Jul-16 13:58N 59°54' E 010°44'0 0.0
2017-Jul-16 13:28N 59°54' E 010°44'0 0.0
2017-Jul-16 12:58N 59°54' E 010°44'0 0.0
2017-Jul-16 12:28N 59°54' E 010°44'1 2.4
2017-Jul-16 12:00N 59°54' E 010°42'136.0 220 / 41009.010.8 18.616.119.2
2017-Jul-16 11:58N 59°54' E 010°44'0 0.0
2017-Jul-16 11:28N 59°54' E 010°44'0 0.0
2017-Jul-16 10:58N 59°54' E 010°44'0 0.0
2017-Jul-16 10:28N 59°54' E 010°44'0 0.0
2017-Jul-16 09:58N 59°54' E 010°44'0 0.0
2017-Jul-16 09:25N 59°54' E 010°44'0 0.0
2017-Jul-16 08:58N 59°54' E 010°44'0 0.0
2017-Jul-16 08:28N 59°54' E 010°44'0 0.0
2017-Jul-16 07:52N 59°54' E 010°44'0 0.0
2017-Jul-16 07:25N 59°54' E 010°44'0 0.0
2017-Jul-16 06:58N 59°54' E 010°44'0 0.0
2017-Jul-16 06:25N 59°54' E 010°44'0 0.0
2017-Jul-16 05:58N 59°54' E 010°44'0 0.0
2017-Jul-16 05:25N 59°54' E 010°44'0 0.0
2017-Jul-16 04:58N 59°54' E 010°44'0 0.0
2017-Jul-16 04:30N 59°54' E 010°44'0 0.5
2017-Jul-16 04:00N 59°54' E 010°44'3 6.6
2017-Jul-16 03:30N 59°52' E 010°39'5 9.6
2017-Jul-16 03:00N 59°48' E 010°35'612.3
2017-Jul-16 02:30N 59°42' E 010°36'611.9
2017-Jul-16 02:00N 59°36' E 010°38'13776.3
2017-Jul-16 02:00N 59°24' E 010°30'511.2 200 / 191014.0 5.4 14.7 7.818.2
2017-Jul-16 01:30N 59°29' E 010°35'918.2
2017-Jul-16 01:00N 59°20' E 010°37'918.2
2017-Jul-16 00:30N 59°11' E 010°40'713.5
2017-Jul-16 00:00N 59°05' E 010°35'4 7.7
2017-Jul-15 23:31N 59°01' E 010°34'4 7.6
2017-Jul-15 23:00N 58°57' E 010°32'4 7.6
2017-Jul-15 22:31N 58°53' E 010°31'4 7.4
2017-Jul-15 22:01N 58°50' E 010°30'4 7.3
2017-Jul-15 21:31N 58°46' E 010°29'4 7.5
2017-Jul-15 21:01N 58°42' E 010°28'4 7.3
2017-Jul-15 20:30N 58°39' E 010°30'4 7.5
2017-Jul-15 19:57N 58°35' E 010°33'9 7.5
2017-Jul-15 18:46N 58°27' E 010°39'2 7.3
2017-Jul-15 18:31N 58°25' E 010°40'4 7.5
2017-Jul-15 17:59N 58°21' E 010°42'4 7.5
2017-Jul-15 17:29N 58°18' E 010°44'6 7.5
2017-Jul-15 16:39N 58°12' E 010°50'2 7.4
2017-Jul-15 16:24N 58°10' E 010°51'511.2
2017-Jul-15 16:00N 58°06' E 010°48'343.8 210 / 101018.010.8 16.6 17.4
2017-Jul-15 15:55N 58°07' E 010°54'3 7.7
2017-Jul-15 15:29N 58°04' E 010°57'4 7.7
2017-Jul-15 14:58N 58°00' E 011°00'7 7.7
2017-Jul-15 14:00N 57°53' E 011°04'4 7.5
2017-Jul-15 13:29N 57°50' E 011°07'4 7.4
2017-Jul-15 13:01N 57°47' E 011°10'4 7.5
2017-Jul-15 12:30N 57°43' E 011°13'4 7.6
2017-Jul-15 12:01N 57°40' E 011°16'4268.6
2017-Jul-15 12:00N 57°36' E 011°12'4 8.8 160 / 121018.010.8 17.413.417.2
2017-Jul-15 11:31N 57°37' E 011°20'4 7.7
2017-Jul-15 11:00N 57°33' E 011°22'4 7.7
2017-Jul-15 10:31N 57°29' E 011°25'4 8.2
2017-Jul-15 10:01N 57°26' E 011°28'4 7.6
2017-Jul-15 09:30N 57°22' E 011°30'4 7.5
2017-Jul-15 09:00N 57°18' E 011°33'4 7.4
2017-Jul-15 08:30N 57°15' E 011°35'4 7.4
2017-Jul-15 07:59N 57°11' E 011°37'18 7.5
2017-Jul-15 05:33N 56°54' E 011°49'20 7.5
2017-Jul-15 02:57N 56°35' E 011°58'12 7.6
2017-Jul-15 01:23N 56°24' E 012°03'3 7.6
2017-Jul-15 01:00N 56°21' E 012°04'9 8.8
2017-Jul-15 00:00N 56°12' E 012°06'555.1 240 / 41017.0 5.4 15.5 7.118.0
2017-Jul-14 23:54N 56°15' E 012°13'3 7.2
2017-Jul-14 23:30N 56°13' E 012°17'3 7.0
2017-Jul-14 23:01N 56°11' E 012°22'4 7.0
2017-Jul-14 22:30N 56°09' E 012°28'4 7.2
2017-Jul-14 22:00N 56°07' E 012°33'4 7.3
2017-Jul-14 21:30N 56°05' E 012°38'4 7.5
2017-Jul-14 21:00N 56°01' E 012°41'4 7.5
2017-Jul-14 20:30N 55°58' E 012°43'4 7.3
2017-Jul-14 20:01N 55°54' E 012°44'4 7.2
2017-Jul-14 19:30N 55°51' E 012°45'4 7.3
2017-Jul-14 19:00N 55°47' E 012°43'3 6.8
2017-Jul-14 18:30N 55°44' E 012°40'3 5.9
2017-Jul-14 18:00N 55°42' E 012°36'0 0.0
2017-Jul-14 17:29N 55°42' E 012°36'0 0.0
2017-Jul-14 16:59N 55°42' E 012°36'0 0.0
2017-Jul-14 16:29N 55°42' E 012°36'0 0.0
2017-Jul-14 15:59N 55°42' E 012°36'0 0.0
2017-Jul-14 15:29N 55°42' E 012°36'0 0.0
2017-Jul-14 14:59N 55°42' E 012°36'0 0.0
2017-Jul-14 14:29N 55°42' E 012°36'0 0.0
2017-Jul-14 13:59N 55°42' E 012°36'0 0.0
2017-Jul-14 13:29N 55°42' E 012°36'0 0.0
2017-Jul-14 12:59N 55°42' E 012°36'0 0.0
2017-Jul-14 12:29N 55°42' E 012°36'0 0.3
2017-Jul-14 12:00N 55°42' E 012°36'0105.0 300 / 81015.010.8 17.5 5.018.3
2017-Jul-14 11:59N 55°42' E 012°36'0 0.0
2017-Jul-14 11:29N 55°42' E 012°36'0 0.0
2017-Jul-14 10:59N 55°42' E 012°36'0 0.0
2017-Jul-14 10:29N 55°42' E 012°36'0 0.0
2017-Jul-14 09:59N 55°42' E 012°36'0 0.0
2017-Jul-14 09:29N 55°42' E 012°36'0 0.0
2017-Jul-14 08:59N 55°42' E 012°36'0 0.0
2017-Jul-14 08:29N 55°42' E 012°36'0 0.0
2017-Jul-14 07:59N 55°42' E 012°36'0 0.0
2017-Jul-14 07:29N 55°42' E 012°36'0 0.0
2017-Jul-14 06:59N 55°42' E 012°36'0 0.0
2017-Jul-14 06:29N 55°42' E 012°36'0 0.0
2017-Jul-14 05:59N 55°42' E 012°36'0 0.0
2017-Jul-14 05:29N 55°42' E 012°36'0 0.0
2017-Jul-14 04:59N 55°42' E 012°36'0 0.0
2017-Jul-14 04:29N 55°42' E 012°36'0 0.0
2017-Jul-14 03:59N 55°42' E 012°36'0 0.0
2017-Jul-14 03:30N 55°42' E 012°36'0 0.0
2017-Jul-14 03:00N 55°42' E 012°36'0 0.0
2017-Jul-14 02:30N 55°42' E 012°36'0 0.0
2017-Jul-14 02:00N 55°42' E 012°36'0 0.0
2017-Jul-14 01:30N 55°42' E 012°36'0 0.0
2017-Jul-14 01:00N 55°42' E 012°36'0 0.0
2017-Jul-14 00:29N 55°42' E 012°36'0 0.0
2017-Jul-14 00:00N 55°42' E 012°36'0 9.4
2017-Jul-14 00:00N 55°42' E 012°36'0 0.3 260 / 41017.0 5.4 12.4 0.618.4
2017-Jul-13 23:30N 55°42' E 012°36'0 0.0
2017-Jul-13 23:00N 55°42' E 012°36'0 0.0
2017-Jul-13 22:30N 55°42' E 012°36'0 0.0
2017-Jul-13 22:00N 55°42' E 012°36'0 0.0
2017-Jul-13 21:30N 55°42' E 012°36'0 0.0
2017-Jul-13 21:00N 55°42' E 012°36'0 0.0
2017-Jul-13 20:30N 55°42' E 012°36'0 0.0
2017-Jul-13 20:00N 55°42' E 012°36'0 0.0
2017-Jul-13 19:30N 55°42' E 012°36'0 0.0
2017-Jul-13 19:00N 55°42' E 012°36'0 0.0
2017-Jul-13 18:30N 55°42' E 012°36'0 0.0
2017-Jul-13 18:00N 55°42' E 012°36'0 0.0
2017-Jul-13 17:29N 55°42' E 012°36'0 0.0
2017-Jul-13 16:59N 55°42' E 012°36'0 0.0
2017-Jul-13 16:29N 55°42' E 012°36'0 0.0
2017-Jul-13 15:59N 55°42' E 012°36'0 0.0
2017-Jul-13 15:29N 55°42' E 012°36'0 0.0
2017-Jul-13 14:59N 55°42' E 012°36'0 0.0
2017-Jul-13 14:29N 55°42' E 012°36'0 0.0
2017-Jul-13 13:58N 55°42' E 012°36'0 0.0
2017-Jul-13 13:28N 55°42' E 012°36'0 0.0
2017-Jul-13 13:00N 55°42' E 012°36'0 9.5
2017-Jul-13 13:00N 55°42' E 012°36'0 0.3 1017.010.8 18.2 9.018.0
2017-Jul-13 12:30N 55°42' E 012°36'0 0.0
2017-Jul-13 12:00N 55°42' E 012°36'0 0.0
2017-Jul-13 11:30N 55°42' E 012°36'0 0.0
2017-Jul-13 11:00N 55°42' E 012°36'0 0.0
2017-Jul-13 10:29N 55°42' E 012°36'0 0.0
2017-Jul-13 09:59N 55°42' E 012°36'0 0.3
2017-Jul-13 09:30N 55°42' E 012°36'1 2.5
2017-Jul-13 09:00N 55°43' E 012°38'612.5
2017-Jul-13 08:30N 55°49' E 012°43'815.9
2017-Jul-13 08:00N 55°56' E 012°39'714.9
2017-Jul-13 07:30N 56°04' E 012°38'816.9
2017-Jul-13 07:01N 56°09' E 012°26'816.1
2017-Jul-13 06:30N 56°13' E 012°13'6812.3
2017-Jul-13 00:58N 55°16' E 011°04'714.7
2017-Jul-13 00:30N 55°10' E 011°03'816.7
2017-Jul-13 00:00N 55°02' E 011°02'2121.2
2017-Jul-13 00:00N 55°00' E 011°00'612.6 290 / 301014.0 5.4 12.4 7.917.7
2017-Jul-12 23:30N 54°55' E 010°55'815.8
2017-Jul-12 23:00N 54°47' E 010°53'714.0
2017-Jul-12 22:30N 54°41' E 010°58'815.6
2017-Jul-12 22:00N 54°37' E 011°10'815.8
2017-Jul-12 21:30N 54°34' E 011°22'816.0
2017-Jul-12 21:00N 54°29' E 011°34'816.0
2017-Jul-12 20:30N 54°26' E 011°46'816.2
2017-Jul-12 20:00N 54°21' E 011°57'814.8
2017-Jul-12 19:29N 54°15' E 012°04'4 8.8
2017-Jul-12 19:00N 54°10' E 012°06'  

Dump ship's entire track history